nws-alerts: Checking more than four warning/county codes can delay the loading of your pages. You should use a cron job to get the data.
EllijayWeather Station Historical Data
Daily Summary for March 26, 2019 Units:  English    Metric   Both
Daily Weekly Monthly Yearly Custom
  High: Low: Average:
Temperature: 60.1 °F 43.0 °F 50.9 °F
Dew Point: 48.7 °F 39.4 °F 45 °F
Humidity: 99% 62% 81%
Wind Speed: 8.1mph 0.0mph 0.6mph
Wind Gust: 12.0mph - -
Wind- - WSW
Pressure: 30.28 in 30.03 in -
Precipitation: 0.00 in    
Historical Graphs
 
 
Tabular Data for March 26, 2019
Time Temperature Dew Point Pressure Wind Wind Speed Wind Gust Humidity Rainfall Rate (Hourly) solar
00:04 44.2 °F 43.5 °F 30.03 in Calm     97% 0.00 in meteobridge W/m2
00:09 44.1 °F 43.3 °F 30.03 in Calm     97% 0.00 in meteobridge W/m2
00:14 44.1 °F 43.3 °F 30.04 in Calm     97% 0.00 in meteobridge W/m2
00:19 43.9 °F 43.2 °F 30.03 in Calm     97% 0.00 in meteobridge W/m2
00:24 43.7 °F 43.0 °F 30.04 in Calm     97% 0.00 in meteobridge W/m2
00:29 43.7 °F 43.0 °F 30.04 in Calm     97% 0.00 in meteobridge W/m2
00:34 43.5 °F 42.8 °F 30.04 in Calm     97% 0.00 in meteobridge W/m2
00:39 43.5 °F 42.8 °F 30.04 in Calm     97% 0.00 in meteobridge W/m2
00:44 43.5 °F 42.8 °F 30.04 in Calm     97% 0.00 in meteobridge W/m2
00:49 43.5 °F 42.8 °F 30.04 in Calm     97% 0.00 in meteobridge W/m2
00:54 43.3 °F 42.6 °F 30.04 in Calm     97% 0.00 in meteobridge W/m2
00:59 43.3 °F 42.6 °F 30.04 in Calm     97% 0.00 in meteobridge W/m2
01:04 43.2 °F 42.4 °F 30.04 in Calm     97% 0.00 in meteobridge W/m2
01:09 43.0 °F 42.3 °F 30.04 in Calm     97% 0.00 in meteobridge W/m2
01:14 43.0 °F 42.3 °F 30.04 in Calm     97% 0.00 in meteobridge W/m2
01:19 43.0 °F 42.3 °F 30.04 in Calm     97% 0.00 in meteobridge W/m2
01:24 43.0 °F 42.3 °F 30.04 in Calm     97% 0.00 in meteobridge W/m2
01:29 43.0 °F 42.3 °F 30.04 in Calm     97% 0.00 in meteobridge W/m2
01:34 43.0 °F 42.4 °F 30.04 in Calm     98% 0.00 in meteobridge W/m2
01:39 43.2 °F 42.6 °F 30.04 in Calm     98% 0.00 in meteobridge W/m2
01:44 43.3 °F 42.8 °F 30.05 in Calm     98% 0.00 in meteobridge W/m2
01:49 43.7 °F 43.2 °F 30.04 in Calm     98% 0.00 in meteobridge W/m2
01:54 44.1 °F 43.5 °F 30.05 in Calm     98% 0.00 in meteobridge W/m2
01:59 44.6 °F 44.4 °F 30.04 in Calm     99% 0.00 in meteobridge W/m2
02:04 45.1 °F 45.0 °F 30.04 in Calm     99% 0.00 in meteobridge W/m2
02:09 45.7 °F 45.5 °F 30.04 in WNW 0.9 mph 2.0 mph 99% 0.00 in meteobridge W/m2
02:14 46.2 °F 46.0 °F 30.05 in Calm   1.0 mph 99% 0.00 in meteobridge W/m2
02:19 46.2 °F 46.0 °F 30.05 in Calm     99% 0.00 in meteobridge W/m2
02:24 46.4 °F 46.2 °F 30.05 in Calm   4.0 mph 99% 0.00 in meteobridge W/m2
02:29 46.9 °F 46.8 °F 30.05 in Calm     99% 0.00 in meteobridge W/m2
02:34 47.5 °F 47.3 °F 30.05 in NNW 2.0 mph 2.0 mph 99% 0.00 in meteobridge W/m2
02:39 47.7 °F 47.5 °F 30.05 in Calm     99% 0.00 in meteobridge W/m2
02:44 47.7 °F 47.5 °F 30.05 in Calm     99% 0.00 in meteobridge W/m2
02:49 47.8 °F 47.7 °F 30.05 in Calm     99% 0.00 in meteobridge W/m2
02:54 47.8 °F 47.7 °F 30.05 in Calm     99% 0.00 in meteobridge W/m2
02:59 48.0 °F 47.8 °F 30.06 in Calm     99% 0.00 in meteobridge W/m2
03:04 48.0 °F 47.8 °F 30.06 in Calm     99% 0.00 in meteobridge W/m2
03:09 47.8 °F 47.7 °F 30.06 in Calm     99% 0.00 in meteobridge W/m2
03:14 47.8 °F 47.7 °F 30.06 in Calm     99% 0.00 in meteobridge W/m2
03:19 48.0 °F 47.8 °F 30.06 in Calm     99% 0.00 in meteobridge W/m2
03:24 48.0 °F 47.8 °F 30.06 in Calm     99% 0.00 in meteobridge W/m2
03:29 47.8 °F 47.7 °F 30.06 in Calm   1.0 mph 99% 0.00 in meteobridge W/m2
03:34 47.8 °F 47.3 °F 30.06 in Calm   3.0 mph 98% 0.00 in meteobridge W/m2
03:39 47.8 °F 47.3 °F 30.06 in Calm   3.0 mph 98% 0.00 in meteobridge W/m2
03:44 48.0 °F 47.5 °F 30.06 in Calm     98% 0.00 in meteobridge W/m2
03:49 47.8 °F 47.3 °F 30.06 in Calm   4.0 mph 98% 0.00 in meteobridge W/m2
03:54 47.8 °F 46.9 °F 30.06 in NW 0.9 mph 1.0 mph 97% 0.00 in meteobridge W/m2
03:59 47.8 °F 46.9 °F 30.06 in Calm   4.0 mph 97% 0.00 in meteobridge W/m2
04:04 48.0 °F 47.1 °F 30.06 in Calm   2.0 mph 97% 0.00 in meteobridge W/m2
04:09 48.0 °F 47.1 °F 30.06 in Calm   1.0 mph 97% 0.00 in meteobridge W/m2
04:14 47.8 °F 46.9 °F 30.06 in Calm   1.0 mph 97% 0.00 in meteobridge W/m2
04:19 47.8 °F 46.9 °F 30.06 in NNW 0.9 mph 4.0 mph 97% 0.00 in meteobridge W/m2
04:24 47.8 °F 46.9 °F 30.07 in ESE 0.9 mph 3.0 mph 97% 0.00 in meteobridge W/m2
04:29 47.8 °F 46.9 °F 30.06 in Calm   3.0 mph 97% 0.00 in meteobridge W/m2
04:34 47.8 °F 46.8 °F 30.06 in Calm     96% 0.00 in meteobridge W/m2
04:39 47.8 °F 46.8 °F 30.07 in Calm     96% 0.00 in meteobridge W/m2
04:44 47.7 °F 46.6 °F 30.07 in Calm     96% 0.00 in meteobridge W/m2
04:49 47.7 °F 46.6 °F 30.07 in Calm   3.0 mph 96% 0.00 in meteobridge W/m2
04:54 47.5 °F 46.4 °F 30.07 in NNW 2.0 mph 2.0 mph 96% 0.00 in meteobridge W/m2
04:59 47.5 °F 46.0 °F 30.08 in Calm     95% 0.00 in meteobridge W/m2
05:04 47.3 °F 45.9 °F 30.08 in WNW 4.0 mph 4.0 mph 95% 0.00 in meteobridge W/m2
05:09 47.1 °F 45.7 °F 30.08 in Calm   4.0 mph 95% 0.00 in meteobridge W/m2
05:14 47.1 °F 46.0 °F 30.08 in Calm     96% 0.00 in meteobridge W/m2
05:19 46.9 °F 45.9 °F 30.08 in Calm   1.0 mph 96% 0.00 in meteobridge W/m2
05:24 46.9 °F 45.9 °F 30.08 in Calm   4.0 mph 96% 0.00 in meteobridge W/m2
05:29 46.9 °F 45.9 °F 30.08 in Calm     96% 0.00 in meteobridge W/m2
05:34 46.8 °F 45.7 °F 30.09 in Calm     96% 0.00 in meteobridge W/m2
05:39 46.8 °F 46.0 °F 30.09 in Calm   3.0 mph 97% 0.00 in meteobridge W/m2
05:44 46.8 °F 45.3 °F 30.09 in NW 4.0 mph 5.0 mph 95% 0.00 in meteobridge W/m2
05:49 46.6 °F 45.1 °F 30.09 in NW 0.9 mph 1.0 mph 95% 0.00 in meteobridge W/m2
05:54 46.6 °F 45.0 °F 30.09 in Calm   2.0 mph 94% 0.00 in meteobridge W/m2
05:59 46.6 °F 45.1 °F 30.09 in Calm     95% 0.00 in meteobridge W/m2
06:04 46.2 °F 44.8 °F 30.10 in Calm   1.0 mph 95% 0.00 in meteobridge W/m2
06:09 46.2 °F 44.8 °F 30.10 in Calm     95% 0.00 in meteobridge W/m2
06:14 46.2 °F 44.8 °F 30.10 in Calm     95% 0.00 in meteobridge W/m2
06:19 46.2 °F 44.8 °F 30.10 in WNW 2.0 mph 5.0 mph 95% 0.00 in meteobridge W/m2
06:24 46.0 °F 44.4 °F 30.11 in Calm     94% 0.00 in meteobridge W/m2
06:29 46.0 °F 44.4 °F 30.11 in Calm   1.0 mph 94% 0.00 in meteobridge W/m2
06:34 46.0 °F 44.1 °F 30.11 in Calm   5.0 mph 93% 0.00 in meteobridge W/m2
06:39 46.0 °F 44.4 °F 30.11 in Calm     94% 0.00 in meteobridge W/m2
06:44 46.0 °F 44.4 °F 30.11 in Calm   4.0 mph 94% 0.00 in meteobridge W/m2
06:49 45.9 °F 44.4 °F 30.11 in Calm   2.0 mph 95% 0.00 in meteobridge W/m2
06:54 45.9 °F 44.4 °F 30.11 in Calm   1.0 mph 95% 0.00 in meteobridge W/m2
06:59 45.9 °F 44.8 °F 30.11 in WNW 6.0 mph 6.0 mph 96% 0.00 in meteobridge W/m2
07:04 45.7 °F 44.4 °F 30.11 in Calm     95% 0.00 in meteobridge W/m2
07:09 45.7 °F 44.4 °F 30.12 in NW 2.9 mph 3.0 mph 95% 0.00 in meteobridge W/m2
07:14 45.7 °F 44.1 °F 30.11 in West 4.0 mph 5.0 mph 94% 0.00 in meteobridge W/m2
07:19 45.7 °F 43.7 °F 30.11 in Calm   3.0 mph 93% 0.00 in meteobridge W/m2
07:24 45.5 °F 43.5 °F 30.12 in WNW 6.0 mph 6.0 mph 93% 0.00 in meteobridge W/m2
07:29 45.3 °F 43.2 °F 30.12 in Calm   2.0 mph 92% 0.00 in meteobridge W/m2
07:34 45.3 °F 43.3 °F 30.12 in Calm   3.0 mph 93% 0.00 in meteobridge W/m2
07:39 45.1 °F 43.2 °F 30.12 in NW 2.9 mph 6.0 mph 93% 0.00 in meteobridge W/m2
07:44 45.1 °F 43.2 °F 30.12 in Calm   3.0 mph 93% 0.00 in meteobridge W/m2
07:49 45.1 °F 43.2 °F 30.12 in Calm     93% 0.00 in meteobridge W/m2
07:54 45.0 °F 43.0 °F 30.12 in Calm   3.0 mph 93% 0.00 in meteobridge W/m2
07:59 45.0 °F 43.0 °F 30.12 in Calm   12.0 mph 93% 0.00 in meteobridge W/m2
08:04 45.0 °F 43.0 °F 30.12 in North 4.0 mph 8.0 mph 93% 0.00 in meteobridge W/m2
08:09 45.0 °F 43.0 °F 30.12 in Calm   4.0 mph 93% 0.00 in meteobridge W/m2
08:14 45.0 °F 43.0 °F 30.13 in NNW 0.9 mph 2.0 mph 93% 0.00 in meteobridge W/m2
08:19 45.0 °F 42.8 °F 30.13 in Calm   6.0 mph 92% 0.00 in meteobridge W/m2
08:24 45.0 °F 43.0 °F 30.13 in North 2.0 mph 3.0 mph 93% 0.00 in meteobridge W/m2
08:29 45.0 °F 42.8 °F 30.13 in ENE 0.9 mph 8.0 mph 92% 0.00 in meteobridge W/m2
08:34 45.1 °F 43.0 °F 30.14 in NW 2.0 mph 6.0 mph 92% 0.00 in meteobridge W/m2
08:39 45.1 °F 43.0 °F 30.14 in Calm   3.0 mph 92% 0.00 in meteobridge W/m2
08:44 45.1 °F 43.0 °F 30.14 in Calm     92% 0.00 in meteobridge W/m2
08:49 45.1 °F 43.0 °F 30.14 in Calm   5.0 mph 92% 0.00 in meteobridge W/m2
08:54 45.1 °F 43.2 °F 30.14 in Calm   2.0 mph 93% 0.00 in meteobridge W/m2
08:59 45.3 °F 42.8 °F 30.14 in NW 0.9 mph 6.0 mph 91% 0.00 in meteobridge W/m2
09:04 45.5 °F 43.3 °F 30.14 in Calm   8.0 mph 92% 0.00 in meteobridge W/m2
09:09 45.5 °F 43.3 °F 30.14 in Calm   3.0 mph 92% 0.00 in meteobridge W/m2
09:14 45.7 °F 43.2 °F 30.14 in WSW 2.0 mph 3.0 mph 91% 0.00 in meteobridge W/m2
09:19 45.7 °F 43.2 °F 30.14 in Calm   8.0 mph 91% 0.00 in meteobridge W/m2
09:24 45.9 °F 43.2 °F 30.14 in WNW 2.9 mph 5.0 mph 90% 0.00 in meteobridge W/m2
09:29 45.9 °F 43.2 °F 30.15 in Calm   6.0 mph 90% 0.00 in meteobridge W/m2
09:34 45.9 °F 43.2 °F 30.15 in Calm   4.0 mph 90% 0.00 in meteobridge W/m2
09:39 46.0 °F 43.3 °F 30.15 in NNW 2.9 mph 8.0 mph 90% 0.00 in meteobridge W/m2
09:44 46.0 °F 43.3 °F 30.15 in East 0.9 mph 7.0 mph 90% 0.00 in meteobridge W/m2
09:49 46.2 °F 43.2 °F 30.15 in Calm   4.0 mph 89% 0.00 in meteobridge W/m2
09:54 46.4 °F 43.3 °F 30.15 in NE 2.0 mph 5.0 mph 89% 0.00 in meteobridge W/m2
09:59 46.6 °F 43.5 °F 30.15 in Calm   4.0 mph 89% 0.00 in meteobridge W/m2
10:04 46.8 °F 43.7 °F 30.15 in WNW 0.9 mph 5.0 mph 89% 0.00 in meteobridge W/m2
10:09 46.9 °F 43.5 °F 30.15 in Calm   4.0 mph 88% 0.00 in meteobridge W/m2
10:14 46.9 °F 43.5 °F 30.15 in Calm   4.0 mph 88% 0.00 in meteobridge W/m2
10:19 47.5 °F 44.1 °F 30.15 in NNW 0.9 mph 1.0 mph 88% 0.00 in meteobridge W/m2
10:24 47.8 °F 44.2 °F 30.16 in North 4.0 mph 8.0 mph 87% 0.00 in meteobridge W/m2
10:29 47.8 °F 44.2 °F 30.16 in Calm   4.0 mph 87% 0.00 in meteobridge W/m2
10:34 47.7 °F 43.7 °F 30.16 in WNW 2.0 mph 11.0 mph 86% 0.00 in meteobridge W/m2
10:39 47.7 °F 43.7 °F 30.16 in WNW 4.0 mph 5.0 mph 86% 0.00 in meteobridge W/m2
10:44 47.7 °F 43.7 °F 30.16 in Calm   3.0 mph 86% 0.00 in meteobridge W/m2
10:49 47.8 °F 43.9 °F 30.16 in Calm   7.0 mph 86% 0.00 in meteobridge W/m2
10:54 48.0 °F 44.1 °F 30.16 in Calm   3.0 mph 86% 0.00 in meteobridge W/m2
10:59 48.4 °F 44.1 °F 30.16 in Calm   8.0 mph 85% 0.00 in meteobridge W/m2
11:04 48.4 °F 44.1 °F 30.16 in NNW 4.9 mph 5.0 mph 85% 0.00 in meteobridge W/m2
11:09 48.6 °F 44.6 °F 30.16 in NW 4.0 mph 4.0 mph 86% 0.00 in meteobridge W/m2
11:14 49.1 °F 45.3 °F 30.16 in WSW 0.9 mph 2.0 mph 87% 0.00 in meteobridge W/m2
11:19 50.2 °F 45.1 °F 30.16 in West 2.0 mph 5.0 mph 83% 0.00 in meteobridge W/m2
11:24 51.1 °F 46.0 °F 30.16 in Calm   5.0 mph 83% 0.00 in meteobridge W/m2
11:29 51.8 °F 46.4 °F 30.16 in WNW 0.9 mph 4.0 mph 82% 0.00 in meteobridge W/m2
11:34 52.3 °F 45.7 °F 30.16 in WNW 0.9 mph 6.0 mph 78% 0.00 in meteobridge W/m2
11:38 52.3 °F 45.7 °F 30.16 in WNW 2.9 mph 7.0 mph 78% 0.00 in meteobridge W/m2
11:44 52.3 °F 46.4 °F 30.16 in Calm   2.0 mph 80% 0.00 in meteobridge W/m2
11:49 52.3 °F 46.0 °F 30.16 in NNW 0.9 mph 5.0 mph 79% 0.00 in meteobridge W/m2
11:54 52.5 °F 46.2 °F 30.16 in Calm   8.0 mph 79% 0.00 in meteobridge W/m2
11:59 53.1 °F 47.3 °F 30.16 in Calm   3.0 mph 81% 0.00 in meteobridge W/m2
12:04 53.8 °F 47.1 °F 30.16 in Calm   2.0 mph 78% 0.00 in meteobridge W/m2
12:09 53.8 °F 46.4 °F 30.16 in NW 2.0 mph 7.0 mph 76% 0.00 in meteobridge W/m2
12:14 54.1 °F 46.8 °F 30.16 in Calm   4.0 mph 76% 0.00 in meteobridge W/m2
12:19 54.1 °F 47.8 °F 30.16 in Calm   3.0 mph 79% 0.00 in meteobridge W/m2
12:24 54.3 °F 46.6 °F 30.16 in NW 0.9 mph 7.0 mph 75% 0.00 in meteobridge W/m2
12:29 54.3 °F 46.9 °F 30.16 in North 2.0 mph 5.0 mph 76% 0.00 in meteobridge W/m2
12:34 54.7 °F 47.7 °F 30.16 in NW 2.9 mph 5.0 mph 77% 0.00 in meteobridge W/m2
12:39 55.0 °F 46.9 °F 30.16 in Calm   2.0 mph 74% 0.00 in meteobridge W/m2
12:44 55.2 °F 46.8 °F 30.16 in ENE 4.0 mph 7.0 mph 73% 0.00 in meteobridge W/m2
12:49 55.4 °F 47.7 °F 30.16 in WNW 6.0 mph 6.0 mph 75% 0.00 in meteobridge W/m2
12:54 55.9 °F 47.5 °F 30.15 in Calm   5.0 mph 73% 0.00 in meteobridge W/m2
12:59 56.1 °F 46.8 °F 30.15 in Calm   9.0 mph 71% 0.00 in meteobridge W/m2
13:04 56.1 °F 47.7 °F 30.15 in WSW 6.0 mph 6.0 mph 73% 0.00 in meteobridge W/m2
13:09 56.1 °F 47.3 °F 30.15 in Calm   6.0 mph 72% 0.00 in meteobridge W/m2
13:14 55.9 °F 47.1 °F 30.15 in Calm   4.0 mph 72% 0.00 in meteobridge W/m2
13:19 55.9 °F 46.8 °F 30.16 in ENE 2.9 mph 6.0 mph 71% 0.00 in meteobridge W/m2
13:24 56.3 °F 47.8 °F 30.15 in WNW 0.9 mph 4.0 mph 73% 0.00 in meteobridge W/m2
13:29 56.7 °F 47.3 °F 30.15 in West 8.1 mph 8.0 mph 71% 0.00 in meteobridge W/m2
13:34 56.7 °F 47.3 °F 30.15 in Calm   4.0 mph 71% 0.00 in meteobridge W/m2
13:39 56.7 °F 46.6 °F 30.15 in Calm   6.0 mph 69% 0.00 in meteobridge W/m2
13:44 56.7 °F 46.9 °F 30.15 in ENE 0.9 mph 3.0 mph 70% 0.00 in meteobridge W/m2
13:49 57.0 °F 47.7 °F 30.15 in WNW 6.0 mph 7.0 mph 71% 0.00 in meteobridge W/m2
13:54 57.2 °F 47.5 °F 30.15 in WSW 0.9 mph 8.0 mph 70% 0.00 in meteobridge W/m2
13:59 57.4 °F 47.7 °F 30.15 in Calm   4.0 mph 70% 0.00 in meteobridge W/m2
14:04 57.4 °F 46.9 °F 30.15 in NW 2.9 mph 6.0 mph 68% 0.00 in meteobridge W/m2
14:09 57.6 °F 47.8 °F 30.15 in NW 0.9 mph 4.0 mph 70% 0.00 in meteobridge W/m2
14:14 57.7 °F 47.3 °F 30.15 in WNW 2.9 mph 5.0 mph 68% 0.00 in meteobridge W/m2
14:19 57.7 °F 47.3 °F 30.15 in NW 2.9 mph 9.0 mph 68% 0.00 in meteobridge W/m2
14:24 58.1 °F 47.1 °F 30.15 in Calm   4.0 mph 67% 0.00 in meteobridge W/m2
14:29 58.5 °F 47.5 °F 30.15 in Calm   3.0 mph 67% 0.00 in meteobridge W/m2
14:34 58.5 °F 47.5 °F 30.15 in Calm   6.0 mph 67% 0.00 in meteobridge W/m2
14:39 58.6 °F 48.2 °F 30.14 in Calm   2.0 mph 68% 0.00 in meteobridge W/m2
14:44 58.6 °F 47.7 °F 30.14 in NW 0.9 mph 4.0 mph 67% 0.00 in meteobridge W/m2
14:49 58.8 °F 47.5 °F 30.14 in ESE 2.0 mph 7.0 mph 66% 0.00 in meteobridge W/m2
14:54 59.0 °F 47.3 °F 30.14 in ENE 4.9 mph 5.0 mph 65% 0.00 in meteobridge W/m2
14:59 59.0 °F 47.7 °F 30.14 in NW 6.0 mph 6.0 mph 66% 0.00 in meteobridge W/m2
15:04 59.2 °F 47.5 °F 30.14 in Calm   3.0 mph 65% 0.00 in meteobridge W/m2
15:09 59.0 °F 47.3 °F 30.14 in Calm   2.0 mph 65% 0.00 in meteobridge W/m2
15:14 58.8 °F 47.1 °F 30.14 in NW 0.9 mph 4.0 mph 65% 0.00 in meteobridge W/m2
15:19 58.8 °F 47.1 °F 30.14 in Calm   3.0 mph 65% 0.00 in meteobridge W/m2
15:24 59.2 °F 47.5 °F 30.14 in Calm   4.0 mph 65% 0.00 in meteobridge W/m2
15:29 59.4 °F 47.1 °F 30.13 in NNE 2.0 mph 6.0 mph 64% 0.00 in meteobridge W/m2
15:34 59.4 °F 47.7 °F 30.13 in Calm     65% 0.00 in meteobridge W/m2
15:39 59.7 °F 48.7 °F 30.13 in Calm     67% 0.00 in meteobridge W/m2
15:44 60.1 °F 47.8 °F 30.13 in Calm     64% 0.00 in meteobridge W/m2
15:49 59.9 °F 47.3 °F 30.13 in Calm     63% 0.00 in meteobridge W/m2
15:54 59.9 °F 48.0 °F 30.13 in Calm     65% 0.00 in meteobridge W/m2
15:59 59.7 °F 47.1 °F 30.13 in Calm     63% 0.00 in meteobridge W/m2
16:04 59.5 °F 47.3 °F 30.13 in Calm     64% 0.00 in meteobridge W/m2
16:09 59.4 °F 47.1 °F 30.13 in Calm     64% 0.00 in meteobridge W/m2
16:14 59.4 °F 47.1 °F 30.13 in Calm     64% 0.00 in meteobridge W/m2
16:19 59.4 °F 47.1 °F 30.13 in Calm     64% 0.00 in meteobridge W/m2
16:24 59.5 °F 47.8 °F 30.13 in Calm     65% 0.00 in meteobridge W/m2
16:29 59.5 °F 46.9 °F 30.13 in Calm     63% 0.00 in meteobridge W/m2
16:34 59.2 °F 46.9 °F 30.13 in Calm     64% 0.00 in meteobridge W/m2
16:39 59.2 °F 46.9 °F 30.13 in Calm     64% 0.00 in meteobridge W/m2
16:44 59.4 °F 47.1 °F 30.13 in Calm     64% 0.00 in meteobridge W/m2
16:49 59.4 °F 47.1 °F 30.13 in Calm     64% 0.00 in meteobridge W/m2
16:54 59.4 °F 47.1 °F 30.13 in Calm     64% 0.00 in meteobridge W/m2
16:59 59.4 °F 47.1 °F 30.13 in Calm     64% 0.00 in meteobridge W/m2
17:04 59.4 °F 47.1 °F 30.13 in Calm     64% 0.00 in meteobridge W/m2
17:09 59.5 °F 47.3 °F 30.13 in Calm     64% 0.00 in meteobridge W/m2
17:14 59.5 °F 46.9 °F 30.13 in Calm     63% 0.00 in meteobridge W/m2
17:19 59.5 °F 46.9 °F 30.13 in Calm     63% 0.00 in meteobridge W/m2
17:24 59.5 °F 46.6 °F 30.13 in Calm     62% 0.00 in meteobridge W/m2
17:29 59.5 °F 46.9 °F 30.14 in Calm     63% 0.00 in meteobridge W/m2
17:34 59.5 °F 46.9 °F 30.14 in Calm     63% 0.00 in meteobridge W/m2
17:39 59.4 °F 47.1 °F 30.14 in Calm     64% 0.00 in meteobridge W/m2
17:44 59.2 °F 46.2 °F 30.14 in Calm     62% 0.00 in meteobridge W/m2
17:49 58.8 °F 46.2 °F 30.14 in Calm     63% 0.00 in meteobridge W/m2
17:54 58.8 °F 46.2 °F 30.14 in Calm     63% 0.00 in meteobridge W/m2
17:59 58.8 °F 46.2 °F 30.14 in Calm     63% 0.00 in meteobridge W/m2
18:04 58.6 °F 46.0 °F 30.15 in Calm     63% 0.00 in meteobridge W/m2
18:09 58.5 °F 45.9 °F 30.15 in Calm     63% 0.00 in meteobridge W/m2
18:14 58.5 °F 45.9 °F 30.15 in Calm     63% 0.00 in meteobridge W/m2
18:19 58.3 °F 46.2 °F 30.15 in Calm     64% 0.00 in meteobridge W/m2
18:24 58.3 °F 45.7 °F 30.16 in Calm     63% 0.00 in meteobridge W/m2
18:29 57.9 °F 45.9 °F 30.16 in Calm     64% 0.00 in meteobridge W/m2
18:34 57.6 °F 45.9 °F 30.16 in Calm     65% 0.00 in meteobridge W/m2
18:39 57.4 °F 45.7 °F 30.16 in Calm     65% 0.00 in meteobridge W/m2
18:44 57.0 °F 45.3 °F 30.16 in Calm     65% 0.00 in meteobridge W/m2
18:49 56.7 °F 45.5 °F 30.17 in Calm     66% 0.00 in meteobridge W/m2
18:54 56.5 °F 46.0 °F 30.17 in Calm     68% 0.00 in meteobridge W/m2
18:59 56.3 °F 45.1 °F 30.17 in Calm     66% 0.00 in meteobridge W/m2
19:04 55.9 °F 45.1 °F 30.18 in Calm     67% 0.00 in meteobridge W/m2
19:09 55.9 °F 44.8 °F 30.18 in Calm     66% 0.00 in meteobridge W/m2
19:14 55.6 °F 44.1 °F 30.18 in Calm     65% 0.00 in meteobridge W/m2
19:19 55.4 °F 43.9 °F 30.19 in Calm     65% 0.00 in meteobridge W/m2
19:24 55.0 °F 43.5 °F 30.19 in Calm     65% 0.00 in meteobridge W/m2
19:29 54.7 °F 43.2 °F 30.19 in Calm     65% 0.00 in meteobridge W/m2
19:34 54.1 °F 42.6 °F 30.20 in Calm     65% 0.00 in meteobridge W/m2
19:39 54.0 °F 42.8 °F 30.20 in Calm     66% 0.00 in meteobridge W/m2
19:44 53.6 °F 43.3 °F 30.20 in Calm     68% 0.00 in meteobridge W/m2
19:49 53.4 °F 43.2 °F 30.20 in Calm     68% 0.00 in meteobridge W/m2
19:54 53.2 °F 43.0 °F 30.20 in Calm     68% 0.00 in meteobridge W/m2
19:59 53.2 °F 43.3 °F 30.21 in Calm     69% 0.00 in meteobridge W/m2
20:04 53.1 °F 43.2 °F 30.21 in Calm     69% 0.00 in meteobridge W/m2
20:09 52.9 °F 43.0 °F 30.21 in Calm     69% 0.00 in meteobridge W/m2
20:14 52.5 °F 43.0 °F 30.22 in Calm     70% 0.00 in meteobridge W/m2
20:19 52.3 °F 42.8 °F 30.22 in Calm     70% 0.00 in meteobridge W/m2
20:24 52.3 °F 42.8 °F 30.22 in Calm     70% 0.00 in meteobridge W/m2
20:29 52.2 °F 42.3 °F 30.22 in Calm     69% 0.00 in meteobridge W/m2
20:34 52.2 °F 42.3 °F 30.22 in Calm     69% 0.00 in meteobridge W/m2
20:39 52.0 °F 42.1 °F 30.22 in Calm     69% 0.00 in meteobridge W/m2
20:44 52.0 °F 41.7 °F 30.22 in Calm     68% 0.00 in meteobridge W/m2
20:49 51.8 °F 41.9 °F 30.23 in Calm     69% 0.00 in meteobridge W/m2
20:54 51.6 °F 40.6 °F 30.23 in Calm     66% 0.00 in meteobridge W/m2
20:59 51.6 °F 41.0 °F 30.23 in Calm     67% 0.00 in meteobridge W/m2
21:04 51.6 °F 40.6 °F 30.23 in Calm     66% 0.00 in meteobridge W/m2
21:09 51.6 °F 40.3 °F 30.24 in Calm     65% 0.00 in meteobridge W/m2
21:14 51.6 °F 40.6 °F 30.24 in Calm     66% 0.00 in meteobridge W/m2
21:19 51.4 °F 40.1 °F 30.24 in Calm     65% 0.00 in meteobridge W/m2
21:24 51.6 °F 39.9 °F 30.24 in Calm     64% 0.00 in meteobridge W/m2
21:29 51.6 °F 39.9 °F 30.24 in Calm     64% 0.00 in meteobridge W/m2
21:34 51.6 °F 39.4 °F 30.24 in Calm     63% 0.00 in meteobridge W/m2
21:39 51.6 °F 39.9 °F 30.25 in Calm     64% 0.00 in meteobridge W/m2
21:44 51.6 °F 41.7 °F 30.25 in Calm     69% 0.00 in meteobridge W/m2
21:49 51.4 °F 41.9 °F 30.26 in Calm     70% 0.00 in meteobridge W/m2
21:54 51.4 °F 43.5 °F 30.26 in Calm     74% 0.00 in meteobridge W/m2
21:59 51.3 °F 43.9 °F 30.26 in Calm     76% 0.00 in meteobridge W/m2
22:04 51.1 °F 43.7 °F 30.26 in Calm     76% 0.00 in meteobridge W/m2
22:09 50.9 °F 43.5 °F 30.26 in Calm     76% 0.00 in meteobridge W/m2
22:14 50.7 °F 43.7 °F 30.26 in Calm     77% 0.00 in meteobridge W/m2
22:19 50.5 °F 43.5 °F 30.26 in Calm     77% 0.00 in meteobridge W/m2
22:24 50.4 °F 43.7 °F 30.26 in Calm     78% 0.00 in meteobridge W/m2
22:29 50.4 °F 43.3 °F 30.26 in Calm     77% 0.00 in meteobridge W/m2
22:34 50.4 °F 43.7 °F 30.26 in Calm     78% 0.00 in meteobridge W/m2
22:39 50.4 °F 43.7 °F 30.27 in Calm     78% 0.00 in meteobridge W/m2
22:44 50.2 °F 43.5 °F 30.27 in Calm     78% 0.00 in meteobridge W/m2
22:49 50.2 °F 43.9 °F 30.27 in Calm     79% 0.00 in meteobridge W/m2
22:54 50.0 °F 43.7 °F 30.27 in Calm     79% 0.00 in meteobridge W/m2
22:59 49.8 °F 43.9 °F 30.27 in Calm     80% 0.00 in meteobridge W/m2
23:04 49.8 °F 43.9 °F 30.27 in Calm     80% 0.00 in meteobridge W/m2
23:09 49.8 °F 43.9 °F 30.27 in Calm     80% 0.00 in meteobridge W/m2
23:14 49.6 °F 43.7 °F 30.27 in Calm     80% 0.00 in meteobridge W/m2
23:19 49.6 °F 43.7 °F 30.27 in Calm     80% 0.00 in meteobridge W/m2
23:24 49.6 °F 43.7 °F 30.27 in Calm     80% 0.00 in meteobridge W/m2
23:29 49.6 °F 43.7 °F 30.27 in Calm     80% 0.00 in meteobridge W/m2
23:34 49.6 °F 44.1 °F 30.27 in Calm     81% 0.00 in meteobridge W/m2
23:39 49.6 °F 44.1 °F 30.27 in Calm     81% 0.00 in meteobridge W/m2
23:44 49.6 °F 44.1 °F 30.27 in Calm     81% 0.00 in meteobridge W/m2
23:49 49.5 °F 43.9 °F 30.27 in Calm     81% 0.00 in meteobridge W/m2
23:54 49.5 °F 43.9 °F 30.28 in Calm     81% 0.00 in meteobridge W/m2
23:59 49.5 °F 44.2 °F 30.28 in Calm     82% 0.00 in meteobridge W/m2
EllijayWeather
Compliments of Weather Underground - 2.5 mb